Time;durP1;ratioP1;P1;durP2;ratioP2;P2;SDS_P1;SDS_P2;PMS_P1;PMS_P2;Temp;Humidity;BMP_temperature;BMP_pressure;BME280_temperature;BME280_humidity;BME280_pressure;Samples;Min_cycle;Max_cycle;Signal;HPM_P1;HPM_P2
2023/02/12 00:01:01;;;;;;;9.43;2.70;;;;;;;7.48;100.00;102833.25;5035084;28;20446;-69
2023/02/12 00:03:27;;;;;;;8.30;3.03;;;;;;;7.48;100.00;102835.94;5035933;28;20506;-66
2023/02/12 00:05:54;;;;;;;14.37;3.40;;;;;;;7.40;100.00;102841.66;5034904;28;20483;-69
2023/02/12 00:08:22;;;;;;;11.17;2.50;;;;;;;7.45;100.00;102844.50;5034956;28;20445;-69
2023/02/12 00:10:49;;;;;;;16.63;2.37;;;;;;;7.48;100.00;102849.41;5034819;28;20532;-69
2023/02/12 00:13:15;;;;;;;6.90;2.20;;;;;;;7.46;100.00;102849.66;5034768;28;20473;-69
2023/02/12 00:15:42;;;;;;;13.13;3.30;;;;;;;7.42;100.00;102853.84;5034824;28;20447;-69
2023/02/12 00:18:09;;;;;;;15.40;3.37;;;;;;;7.39;100.00;102846.19;5034769;28;20446;-69
2023/02/12 00:20:37;;;;;;;8.27;2.97;;;;;;;7.42;100.00;102848.44;5034572;28;20565;-69
2023/02/12 00:23:03;;;;;;;11.93;2.80;;;;;;;7.39;100.00;102843.50;5034169;28;21015;-68
2023/02/12 00:25:32;;;;;;;10.27;2.93;;;;;;;7.37;100.00;102852.88;5034565;28;20453;-68
2023/02/12 00:27:58;;;;;;;20.80;4.87;;;;;;;7.29;100.00;102857.50;5034576;28;20486;-69
2023/02/12 00:30:25;;;;;;;10.00;3.40;;;;;;;7.35;100.00;102858.50;5034442;28;20475;-68
2023/02/12 00:32:52;;;;;;;10.60;3.80;;;;;;;7.38;100.00;102857.22;5034076;28;20490;-68
2023/02/12 00:35:18;;;;;;;9.57;2.93;;;;;;;7.40;100.00;102857.81;5033934;28;20478;-68
2023/02/12 00:37:45;;;;;;;10.87;3.20;;;;;;;7.33;100.00;102853.31;5033734;28;20467;-69
2023/02/12 00:40:12;;;;;;;10.30;3.23;;;;;;;7.33;100.00;102864.09;5033305;28;20495;-68
2023/02/12 00:42:40;;;;;;;10.67;3.23;;;;;;;7.34;100.00;102871.13;5031019;28;20537;-69
2023/02/12 00:45:07;;;;;;;12.27;2.30;;;;;;;7.37;100.00;102869.88;5032020;28;20502;-68
2023/02/12 00:47:34;;;;;;;12.40;2.90;;;;;;;7.41;100.00;102870.25;5033787;28;21021;-68
2023/02/12 00:50:01;;;;;;;7.17;2.07;;;;;;;7.39;100.00;102869.63;5034139;28;20443;-68
2023/02/12 00:52:27;;;;;;;12.87;3.07;;;;;;;7.40;100.00;102877.53;5034045;28;20451;-68
2023/02/12 00:54:54;;;;;;;10.37;3.03;;;;;;;7.41;100.00;102875.66;5032503;28;20487;-70
2023/02/12 00:57:20;;;;;;;14.60;3.03;;;;;;;7.42;100.00;102885.38;5031677;28;20454;-66
2023/02/12 00:59:48;;;;;;;9.83;2.27;;;;;;;7.43;100.00;102881.63;5032423;28;20494;-68
2023/02/12 01:02:15;;;;;;;7.37;2.47;;;;;;;7.43;100.00;102882.44;5032806;28;20566;-68
2023/02/12 01:04:42;;;;;;;18.00;2.80;;;;;;;7.43;100.00;102882.44;5031175;28;20619;-65
2023/02/12 01:07:09;;;;;;;11.50;2.80;;;;;;;7.42;100.00;102888.06;5032562;28;20454;-68
2023/02/12 01:09:36;;;;;;;14.00;2.83;;;;;;;7.43;100.00;102881.63;5031898;28;20490;-68
2023/02/12 01:12:02;;;;;;;6.50;1.93;;;;;;;7.43;100.00;102878.94;5032727;28;20506;-69
2023/02/12 01:14:29;;;;;;;9.07;2.97;;;;;;;7.43;100.00;102878.94;5031924;28;20491;-69
2023/02/12 01:16:57;;;;;;;8.60;2.57;;;;;;;7.41;100.00;102886.44;5032226;28;20459;-68
2023/02/12 01:19:24;;;;;;;9.47;2.33;;;;;;;7.42;100.00;102888.91;5033465;28;20570;-69
2023/02/12 01:21:50;;;;;;;14.53;2.30;;;;;;;7.34;100.00;102887.31;5033835;28;20538;-69
2023/02/12 01:24:17;;;;;;;7.90;2.83;;;;;;;7.38;100.00;102894.94;5033175;28;20546;-67
2023/02/12 01:26:43;;;;;;;9.27;2.50;;;;;;;7.40;100.00;102892.88;5033233;28;20522;-68
2023/02/12 01:29:10;;;;;;;13.17;2.97;;;;;;;7.43;100.00;102898.63;5033592;28;20467;-68
2023/02/12 01:31:39;;;;;;;11.23;3.60;;;;;;;7.41;100.00;102897.22;5033040;28;20958;-68
2023/02/12 01:34:07;;;;;;;6.77;1.97;;;;;;;7.43;100.00;102895.94;5033220;28;20463;-69
2023/02/12 01:36:35;;;;;;;6.40;1.90;;;;;;;7.43;100.00;102905.88;5033459;28;20858;-68
2023/02/12 01:39:02;;;;;;;7.13;2.20;;;;;;;7.44;100.00;102903.00;5033292;28;20483;-68
2023/02/12 01:41:31;;;;;;;11.00;3.07;;;;;;;7.41;100.00;102902.59;5033222;28;20451;-67
2023/02/12 01:44:16;;;;;;;8.73;3.10;;;;;;;7.43;100.00;102908.59;5033192;28;20549;-68
2023/02/12 01:46:44;;;;;;;6.60;2.43;;;;;;;7.44;100.00;102911.09;5033007;28;20974;-67
2023/02/12 01:49:16;;;;;;;12.37;2.60;;;;;;;7.44;100.00;102912.97;5033100;28;20470;-68
2023/02/12 01:51:46;;;;;;;9.20;2.60;;;;;;;7.39;100.00;102910.06;5032931;28;20428;-68
2023/02/12 01:54:16;;;;;;;8.40;1.40;;;;;;;7.38;100.00;102913.81;5033137;28;20467;-68
2023/02/12 01:56:43;;;;;;;10.13;2.23;;;;;;;7.38;100.00;102913.81;5033086;28;20474;-69
2023/02/12 01:59:11;;;;;;;7.10;2.33;;;;;;;7.40;100.00;102917.97;5032798;28;20479;-68
2023/02/12 02:01:38;;;;;;;9.17;2.40;;;;;;;7.41;100.00;102921.47;5032936;28;20442;-69
2023/02/12 02:04:10;;;;;;;7.23;2.00;;;;;;;7.43;100.00;102919.38;5032591;28;20488;-70
2023/02/12 02:06:44;;;;;;;12.30;2.63;;;;;;;7.43;100.00;102932.84;5033157;28;20420;-68
2023/02/12 02:09:11;;;;;;;6.40;1.60;;;;;;;7.42;100.00;102925.81;5033056;28;20433;-69
2023/02/12 02:14:34;;;;;;;7.00;2.07;;;;;;;7.43;100.00;102924.75;5032872;28;21030;-68
2023/02/12 02:17:20;;;;;;;9.37;2.80;;;;;;;7.39;100.00;102932.47;5034212;28;20464;-69
2023/02/12 02:20:11;;;;;;;11.53;2.67;;;;;;;7.35;100.00;102931.28;5035899;28;21090;-68
2023/02/12 02:22:44;;;;;;;8.10;1.70;;;;;;;7.35;100.00;102925.91;5036054;28;20466;-70
2023/02/12 02:25:38;;;;;;;12.70;2.53;;;;;;;7.28;100.00;102919.72;5036795;28;20525;-68
2023/02/12 02:28:21;;;;;;;10.90;2.47;;;;;;;7.27;100.00;102913.50;4980400;28;20459;-68
2023/02/12 02:30:55;;;;;;;9.33;1.80;;;;;;;7.22;100.00;102921.44;5035239;28;20978;-71
2023/02/12 02:33:32;;;;;;;17.80;2.27;;;;;;;7.20;100.00;102926.22;5033566;28;21051;-70
2023/02/12 02:36:12;;;;;;;7.73;2.40;;;;;;;7.16;100.00;102925.00;5036294;28;20442;-70
2023/02/12 02:38:43;;;;;;;8.13;2.17;;;;;;;7.19;100.00;102924.56;5036496;28;20446;-76
2023/02/12 02:41:16;;;;;;;11.57;2.30;;;;;;;7.20;100.00;102933.47;5036415;28;20482;-70
2023/02/12 02:43:47;;;;;;;7.10;2.17;;;;;;;7.18;100.00;102927.50;5036474;28;20546;-69
2023/02/12 02:46:22;;;;;;;6.70;2.10;;;;;;;7.20;100.00;102931.59;5036548;28;20430;-70
2023/02/12 02:48:52;;;;;;;10.53;2.40;;;;;;;7.20;100.00;102928.91;5036529;28;20470;-69
2023/02/12 02:51:23;;;;;;;8.10;2.47;;;;;;;7.20;100.00;102926.22;5036550;28;20521;-69
2023/02/12 02:53:57;;;;;;;9.40;3.00;;;;;;;7.19;100.00;102935.34;5036366;28;20467;-69
2023/02/12 02:56:25;;;;;;;9.60;3.00;;;;;;;7.20;100.00;102928.09;5029889;28;20483;-67
2023/02/12 02:58:57;;;;;;;6.20;1.53;;;;;;;7.11;100.00;102934.78;5016728;28;20432;-69
2023/02/12 03:01:30;;;;;;;7.00;2.30;;;;;;;7.10;100.00;102931.28;5016563;28;20500;-68
2023/02/12 03:04:03;;;;;;;7.73;2.13;;;;;;;7.08;100.00;102947.69;5016035;28;20480;-69
2023/02/12 03:06:37;;;;;;;8.13;2.70;;;;;;;7.08;100.00;102942.28;5016536;28;20440;-69
2023/02/12 03:09:13;;;;;;;8.00;2.43;;;;;;;7.11;100.00;102940.19;5016395;28;20427;-69
2023/02/12 03:11:40;;;;;;;8.40;2.07;;;;;;;7.08;100.00;102946.81;5016293;28;20516;-69
2023/02/12 03:14:14;;;;;;;26.93;3.20;;;;;;;7.09;100.00;102951.19;5035115;28;20463;-69
2023/02/12 03:16:51;;;;;;;7.67;2.17;;;;;;;6.98;100.00;102947.31;5035661;28;20803;-69
2023/02/12 03:19:22;;;;;;;11.63;3.00;;;;;;;7.02;100.00;102955.78;5035552;28;20879;-68
2023/02/12 03:21:55;;;;;;;8.87;2.40;;;;;;;7.05;100.00;102949.97;5035713;28;20446;-70
2023/02/12 03:24:26;;;;;;;11.70;2.43;;;;;;;7.06;100.00;102954.31;5035805;28;20469;-69
2023/02/12 03:27:00;;;;;;;6.00;1.60;;;;;;;7.06;100.00;102955.13;5035788;28;20438;-69
2023/02/12 03:29:26;;;;;;;7.67;2.67;;;;;;;7.08;100.00;102961.16;5034346;28;20454;-69
2023/02/12 03:32:05;;;;;;;12.03;2.57;;;;;;;7.08;100.00;102963.00;5033650;28;20469;-69
2023/02/12 03:34:46;;;;;;;6.90;2.10;;;;;;;7.07;100.00;102967.56;5035452;28;20892;-68
2023/02/12 03:37:17;;;;;;;9.03;2.07;;;;;;;7.06;100.00;102962.41;5033218;28;20463;-69
2023/02/12 03:39:54;;;;;;;8.20;2.70;;;;;;;7.00;100.00;102955.19;5032916;28;20471;-70
2023/02/12 03:42:31;;;;;;;10.10;2.13;;;;;;;6.96;100.00;102960.19;5034087;28;20960;-69
2023/02/12 03:45:02;;;;;;;8.20;1.83;;;;;;;7.02;100.00;102961.19;5034188;28;20486;-69
2023/02/12 03:47:41;;;;;;;11.30;2.47;;;;;;;7.02;100.00;102961.19;5035209;28;20478;-68
2023/02/12 03:50:14;;;;;;;7.90;2.17;;;;;;;7.04;100.00;102968.03;5035500;28;20856;-69
2023/02/12 03:52:42;;;;;;;12.03;3.00;;;;;;;7.06;100.00;102970.47;5035391;28;20835;-68
2023/02/12 03:55:09;;;;;;;9.20;2.33;;;;;;;7.06;100.00;102973.19;5035260;28;20443;-69
2023/02/12 03:57:40;;;;;;;8.10;2.90;;;;;;;7.02;100.00;102978.16;5035142;28;20530;-69
2023/02/12 04:00:11;;;;;;;9.60;2.40;;;;;;;7.04;100.00;102973.41;5035084;28;20463;-68
2023/02/12 04:02:39;;;;;;;11.67;2.37;;;;;;;7.05;100.00;102990.41;5034748;28;20471;-68
2023/02/12 04:05:07;;;;;;;7.53;2.53;;;;;;;7.06;100.00;102994.75;5035086;28;20537;-68
2023/02/12 04:07:36;;;;;;;8.20;2.00;;;;;;;7.03;100.00;102995.16;5034970;28;20443;-69
2023/02/12 04:10:03;;;;;;;6.70;2.40;;;;;;;7.02;100.00;102993.53;5034832;28;20479;-68
2023/02/12 04:12:39;;;;;;;7.53;2.30;;;;;;;7.00;100.00;103003.69;5034892;28;20450;-69
2023/02/12 04:15:27;;;;;;;9.13;2.70;;;;;;;6.95;100.00;103000.81;5034854;28;20557;-68
2023/02/12 04:18:04;;;;;;;8.57;2.90;;;;;;;6.90;100.00;102997.94;5034823;28;20511;-68
2023/02/12 04:20:41;;;;;;;6.27;2.03;;;;;;;6.88;100.00;103002.72;5034576;28;20481;-68
2023/02/12 04:23:16;;;;;;;7.60;2.67;;;;;;;6.87;100.00;103003.78;5034690;28;20474;-68
2023/02/12 04:25:52;;;;;;;6.73;1.80;;;;;;;6.82;100.00;103007.94;5034432;28;20437;-69
2023/02/12 04:28:28;;;;;;;9.93;2.87;;;;;;;6.80;100.00;103004.63;5034332;28;20450;-68
2023/02/12 04:30:59;;;;;;;8.27;2.40;;;;;;;6.75;100.00;103007.16;5034611;28;20779;-69
2023/02/12 04:33:34;;;;;;;8.77;2.07;;;;;;;6.71;100.00;103005.91;5034181;28;21002;-68
2023/02/12 04:36:05;;;;;;;7.50;1.73;;;;;;;6.72;100.00;103001.34;5034220;28;20523;-68
2023/02/12 04:38:37;;;;;;;8.00;1.77;;;;;;;6.70;100.00;103001.59;5034229;28;20457;-69
2023/02/12 04:41:06;;;;;;;9.70;2.37;;;;;;;6.70;100.00;103001.59;5033571;28;20476;-68
2023/02/12 04:43:35;;;;;;;8.10;2.40;;;;;;;6.70;100.00;103003.44;5034156;28;20455;-70
2023/02/12 04:46:02;;;;;;;6.53;2.30;;;;;;;6.66;100.00;103000.34;5032788;28;21024;-66
2023/02/12 04:48:30;;;;;;;5.80;1.20;;;;;;;6.66;100.00;103005.75;5033976;28;20446;-69
2023/02/12 04:50:56;;;;;;;7.50;1.73;;;;;;;6.67;100.00;103003.88;5034159;28;20524;-69
2023/02/12 04:53:23;;;;;;;6.47;1.73;;;;;;;6.63;100.00;102998.09;5033970;28;20470;-69
2023/02/12 04:55:50;;;;;;;8.10;1.93;;;;;;;6.57;100.00;102998.97;5033919;28;20630;-70
2023/02/12 04:58:16;;;;;;;6.10;1.60;;;;;;;6.52;100.00;102998.78;5033811;28;20952;-69
2023/02/12 05:00:43;;;;;;;8.40;1.83;;;;;;;6.51;100.00;103000.66;5033593;28;21007;-70
2023/02/12 05:03:10;;;;;;;11.60;2.40;;;;;;;6.53;100.00;102997.72;5034063;28;20474;-69
2023/02/12 05:05:38;;;;;;;8.63;1.77;;;;;;;6.51;100.00;103006.03;5033842;28;20534;-69
2023/02/12 05:08:04;;;;;;;17.40;2.07;;;;;;;6.50;100.00;103000.84;5033626;28;20955;-69
2023/02/12 05:10:31;;;;;;;10.30;2.03;;;;;;;6.47;100.00;103007.50;5033851;28;20514;-69
2023/02/12 05:12:57;;;;;;;6.40;1.80;;;;;;;6.46;100.00;103007.69;5033297;28;20451;-68
2023/02/12 05:15:24;;;;;;;8.47;1.83;;;;;;;6.39;100.00;103009.59;5033786;28;20451;-68
2023/02/12 05:17:51;;;;;;;6.37;1.40;;;;;;;6.38;100.00;103002.56;5033671;28;20451;-68
2023/02/12 05:20:17;;;;;;;6.63;1.80;;;;;;;6.34;100.00;103006.72;5033633;28;20493;-68
2023/02/12 05:22:45;;;;;;;6.20;1.43;;;;;;;6.37;100.00;103012.47;5033296;28;20459;-68
2023/02/12 05:25:12;;;;;;;6.60;1.50;;;;;;;6.41;100.00;103015.59;5033573;28;20482;-68
2023/02/12 05:27:38;;;;;;;5.97;1.70;;;;;;;6.43;100.00;103013.53;5033699;28;20443;-68
2023/02/12 05:30:08;;;;;;;6.53;1.60;;;;;;;6.42;100.00;103011.84;5033629;28;20479;-68
2023/02/12 05:32:34;;;;;;;5.53;1.40;;;;;;;6.31;100.00;103010.66;5033352;28;21017;-69
2023/02/12 05:35:01;;;;;;;6.30;1.43;;;;;;;6.36;100.00;103018.09;5033082;28;20975;-71
2023/02/12 05:37:30;;;;;;;8.80;1.63;;;;;;;6.36;100.00;103012.72;5033443;28;20478;-68
2023/02/12 05:39:58;;;;;;;5.73;1.23;;;;;;;6.35;100.00;103027.22;5033366;28;20816;-68
2023/02/12 05:42:24;;;;;;;5.53;1.70;;;;;;;6.32;100.00;103018.50;5032959;28;20486;-68
2023/02/12 05:44:51;;;;;;;5.83;1.53;;;;;;;6.32;100.00;103017.69;5032775;28;20481;-69
2023/02/12 05:47:18;;;;;;;10.07;1.70;;;;;;;6.26;100.00;103026.63;5033088;28;20538;-65
2023/02/12 05:49:44;;;;;;;5.10;1.03;;;;;;;6.32;100.00;103028.44;5032903;28;20975;-68
2023/02/12 05:52:11;;;;;;;7.60;1.80;;;;;;;6.27;100.00;103028.25;5033166;28;20474;-67
2023/02/12 05:54:37;;;;;;;8.73;1.60;;;;;;;6.21;100.00;103029.94;5033090;28;21062;-68
2023/02/12 05:57:07;;;;;;;5.83;1.50;;;;;;;6.19;100.00;103037.38;5033201;28;20483;-68
2023/02/12 05:59:33;;;;;;;8.63;1.83;;;;;;;6.23;100.00;103030.53;5033142;28;20518;-68
2023/02/12 06:02:00;;;;;;;10.30;2.13;;;;;;;6.20;100.00;103033.69;5032822;28;20518;-69
2023/02/12 06:04:29;;;;;;;5.60;1.57;;;;;;;6.20;100.00;103041.75;5032735;28;20515;-68
2023/02/12 06:06:56;;;;;;;6.13;1.57;;;;;;;6.18;100.00;103041.13;5032469;28;20451;-69
2023/02/12 06:09:23;;;;;;;8.37;2.17;;;;;;;6.21;100.00;103040.72;5033039;28;20530;-69
2023/02/12 06:11:50;;;;;;;7.07;2.10;;;;;;;6.17;100.00;103039.47;5032962;28;20439;-69
2023/02/12 06:14:20;;;;;;;7.10;2.17;;;;;;;6.20;100.00;103044.44;5033000;28;20487;-69
2023/02/12 06:16:47;;;;;;;7.20;2.30;;;;;;;6.20;100.00;103047.13;5033302;28;20463;-68
2023/02/12 06:19:14;;;;;;;11.90;3.17;;;;;;;6.20;100.00;103052.50;5032821;28;20482;-69
2023/02/12 06:21:41;;;;;;;7.00;2.30;;;;;;;6.21;100.00;103051.47;5032603;28;20483;-68
2023/02/12 06:24:08;;;;;;;7.40;2.20;;;;;;;6.26;100.00;103051.66;5032782;28;20542;-68
2023/02/12 06:26:34;;;;;;;9.30;2.60;;;;;;;6.29;100.00;103059.31;5032509;28;20525;-69
2023/02/12 06:29:01;;;;;;;11.13;2.80;;;;;;;6.36;100.00;103069.22;5032884;28;20443;-69
2023/02/12 06:31:31;;;;;;;9.60;3.07;;;;;;;6.42;100.00;103068.38;5032885;28;20450;-69
2023/02/12 06:33:59;;;;;;;8.37;3.00;;;;;;;6.47;100.00;103073.97;5032752;28;20589;-69
2023/02/12 06:36:25;;;;;;;13.10;3.60;;;;;;;6.52;100.00;103072.28;5032365;28;20443;-69
2023/02/12 06:38:52;;;;;;;14.40;3.03;;;;;;;6.55;100.00;103081.78;5032651;28;20451;-69
2023/02/12 06:41:19;;;;;;;16.57;3.70;;;;;;;6.57;100.00;103075.19;5032742;28;20483;-69
2023/02/12 06:43:46;;;;;;;15.50;3.50;;;;;;;6.61;100.00;103080.97;5032751;28;20467;-70
2023/02/12 06:46:14;;;;;;;16.50;3.30;;;;;;;6.63;100.00;103083.44;5032777;28;20475;-69
2023/02/12 06:48:42;;;;;;;8.60;2.37;;;;;;;6.65;100.00;103087.59;5032429;28;20490;-71
2023/02/12 06:51:11;;;;;;;10.90;3.20;;;;;;;6.63;100.00;103088.81;5032664;28;20439;-69
2023/02/12 06:53:38;;;;;;;12.63;4.43;;;;;;;6.61;100.00;103102.50;5032498;28;20483;-71
2023/02/12 06:56:10;;;;;;;11.07;3.37;;;;;;;6.61;100.00;103101.69;5032676;28;20875;-70
2023/02/12 06:58:37;;;;;;;8.73;3.13;;;;;;;6.64;100.00;103110.19;5032383;28;20452;-69
2023/02/12 07:01:12;;;;;;;7.40;3.17;;;;;;;6.61;100.00;103107.06;5032447;28;20483;-70
2023/02/12 07:03:39;;;;;;;16.93;3.23;;;;;;;6.60;100.00;103110.78;5034362;28;20585;-69
2023/02/12 07:06:08;;;;;;;10.87;2.70;;;;;;;6.60;100.00;103111.63;5036154;28;20471;-68
2023/02/12 07:08:35;;;;;;;11.10;3.37;;;;;;;6.59;100.00;103115.34;5036147;28;20449;-69
2023/02/12 07:11:02;;;;;;;9.50;3.63;;;;;;;6.60;100.00;103105.41;5036043;28;20463;-70
2023/02/12 07:13:29;;;;;;;7.67;2.30;;;;;;;6.56;100.00;103105.00;5035999;28;20471;-69
2023/02/12 07:15:55;;;;;;;7.33;2.40;;;;;;;6.59;100.00;103099.19;5035521;28;20479;-69
2023/02/12 07:18:22;;;;;;;11.07;2.93;;;;;;;6.66;100.00;103107.25;5035718;28;20531;-69
2023/02/12 07:20:48;;;;;;;9.20;2.10;;;;;;;6.71;100.00;103110.13;5035517;28;20527;-70
2023/02/12 07:23:16;;;;;;;11.10;2.37;;;;;;;6.77;100.00;103107.44;5035816;28;20471;-70
2023/02/12 07:25:43;;;;;;;12.23;3.80;;;;;;;6.85;100.00;103108.22;5035888;28;20868;-71
2023/02/12 07:28:09;;;;;;;9.43;3.30;;;;;;;6.86;100.00;103110.69;5035692;28;20451;-67
2023/02/12 07:30:37;;;;;;;13.60;3.03;;;;;;;6.92;100.00;103117.94;5033816;28;20554;-70
2023/02/12 07:33:04;;;;;;;12.63;3.20;;;;;;;6.97;100.00;103114.59;5035581;28;20497;-71
2023/02/12 07:35:30;;;;;;;9.87;2.90;;;;;;;7.03;100.00;103117.25;5035539;28;20785;-71
2023/02/12 07:37:58;;;;;;;14.17;3.40;;;;;;;7.09;100.00;103120.97;5035585;28;20494;-73
2023/02/12 07:40:26;;;;;;;10.47;3.70;;;;;;;7.11;100.00;103118.88;5035247;28;20442;-70
2023/02/12 07:42:55;;;;;;;8.97;2.47;;;;;;;7.12;100.00;103117.81;5035328;28;20562;-69
2023/02/12 07:45:21;;;;;;;6.20;2.00;;;;;;;7.16;100.00;103123.63;5034961;28;20951;-69
2023/02/12 07:47:48;;;;;;;9.60;2.70;;;;;;;7.17;100.00;103112.66;5035378;28;20450;-69
2023/02/12 07:50:15;;;;;;;10.67;2.90;;;;;;;7.22;100.00;103122.78;5035442;28;20505;-71
2023/02/12 07:52:42;;;;;;;10.87;2.73;;;;;;;7.24;100.00;103124.19;5034820;28;20443;-70
2023/02/12 07:55:09;;;;;;;7.73;2.17;;;;;;;7.28;100.00;103135.38;5035250;28;20537;-68
2023/02/12 07:57:37;;;;;;;7.70;2.37;;;;;;;7.29;100.00;103127.06;5034982;28;20518;-70
2023/02/12 08:00:04;;;;;;;11.53;2.40;;;;;;;7.30;100.00;103134.13;5035138;28;20461;-69
2023/02/12 08:02:31;;;;;;;7.73;2.60;;;;;;;7.31;100.00;103138.47;5034755;28;20518;-71
2023/02/12 08:04:58;;;;;;;8.20;2.60;;;;;;;7.31;100.00;103140.34;5032901;28;20491;-71
2023/02/12 08:07:25;;;;;;;10.10;3.10;;;;;;;7.31;100.00;103146.56;5034886;28;20475;-69
2023/02/12 08:09:52;;;;;;;7.80;2.40;;;;;;;7.36;100.00;103150.47;5033076;28;20469;-69
2023/02/12 08:12:19;;;;;;;10.27;2.63;;;;;;;7.44;100.00;103151.06;5034972;28;20522;-68
2023/02/12 08:14:47;;;;;;;9.10;3.50;;;;;;;7.47;100.00;103150.59;5033637;28;20477;-69
2023/02/12 08:17:13;;;;;;;14.83;3.07;;;;;;;7.51;100.00;103154.53;5034451;28;20443;-68
2023/02/12 08:19:40;;;;;;;8.70;2.20;;;;;;;7.56;100.00;103159.25;5034660;28;20474;-70
2023/02/12 08:22:06;;;;;;;13.13;3.00;;;;;;;7.64;100.00;103156.31;5034695;28;20478;-70
2023/02/12 08:24:33;;;;;;;6.90;2.30;;;;;;;7.68;100.00;103164.81;5034575;28;20533;-68
2023/02/12 08:27:00;;;;;;;9.50;3.20;;;;;;;7.69;100.00;103172.66;5034451;28;20441;-69
2023/02/12 08:29:28;;;;;;;8.77;2.90;;;;;;;7.75;100.00;103169.13;5034083;28;20971;-68
2023/02/12 08:31:58;;;;;;;8.53;2.73;;;;;;;7.74;100.00;103164.75;5034454;28;20439;-69
2023/02/12 08:34:26;;;;;;;9.77;2.57;;;;;;;7.76;100.00;103170.78;5034340;28;20459;-69
2023/02/12 08:36:54;;;;;;;8.23;3.13;;;;;;;7.80;100.00;103180.09;5032586;28;20534;-70
2023/02/12 08:39:21;;;;;;;8.03;2.70;;;;;;;7.83;100.00;103174.25;5033878;28;20964;-69
2023/02/12 08:41:49;;;;;;;9.93;2.90;;;;;;;7.81;100.00;103184.44;5033493;28;20491;-69
2023/02/12 08:44:16;;;;;;;10.83;2.40;;;;;;;7.84;100.00;103181.31;5030173;28;20487;-69
2023/02/12 08:46:45;;;;;;;10.80;3.20;;;;;;;7.91;100.00;103185.81;5032278;28;20956;-70
2023/02/12 08:49:16;;;;;;;9.73;3.53;;;;;;;7.89;100.00;103196.00;5031407;28;20467;-71
2023/02/12 08:51:44;;;;;;;11.00;2.50;;;;;;;7.96;100.00;103194.06;5034241;28;20474;-70
2023/02/12 08:54:13;;;;;;;11.27;3.63;;;;;;;8.02;100.00;103194.03;5032597;28;20467;-69
2023/02/12 08:56:39;;;;;;;9.93;3.27;;;;;;;8.07;100.00;103201.47;5031765;28;20952;-69
2023/02/12 08:59:07;;;;;;;14.83;3.63;;;;;;;8.10;100.00;103201.00;5033785;28;20457;-70
2023/02/12 09:01:37;;;;;;;15.73;3.80;;;;;;;8.14;100.00;103199.53;5031863;28;20479;-69
2023/02/12 09:04:04;;;;;;;13.07;3.70;;;;;;;8.17;100.00;103196.41;5033588;28;20478;-70
2023/02/12 09:06:34;;;;;;;11.63;3.17;;;;;;;8.23;100.00;103197.38;5032668;28;20534;-70
2023/02/12 09:09:02;;;;;;;14.53;3.80;;;;;;;8.24;100.00;103210.69;5032394;28;20451;-70
2023/02/12 09:11:30;;;;;;;13.57;4.07;;;;;;;8.30;100.00;103209.78;5033885;28;20475;-70
2023/02/12 09:13:58;;;;;;;13.90;3.60;;;;;;;8.42;100.00;103211.81;5032569;28;20479;-70
2023/02/12 09:16:26;;;;;;;11.73;4.67;;;;;;;8.49;100.00;103209.88;5032301;28;20952;-70
2023/02/12 09:18:53;;;;;;;11.03;3.33;;;;;;;8.54;100.00;103210.03;5033418;28;20823;-70
2023/02/12 09:21:20;;;;;;;24.17;4.90;;;;;;;8.56;100.00;103213.34;5032211;28;20823;-70
2023/02/12 09:23:48;;;;;;;12.40;4.40;;;;;;;8.50;100.00;103220.47;5032661;28;20557;-71
2023/02/12 09:26:20;;;;;;;13.57;5.33;;;;;;;8.46;100.00;103223.84;5032763;28;20539;-70
2023/02/12 09:28:47;;;;;;;12.60;3.70;;;;;;;8.51;100.00;103232.91;5029954;28;20962;-69
2023/02/12 09:31:16;;;;;;;12.17;3.27;;;;;;;8.57;100.00;103225.78;5033065;28;20444;-70
2023/02/12 09:33:43;;;;;;;16.27;4.40;;;;;;;8.68;100.00;103226.97;5032942;28;20463;-69
2023/02/12 09:36:13;;;;;;;15.33;4.17;;;;;;;8.71;100.00;103227.31;5033131;28;20479;-68
2023/02/12 09:38:40;;;;;;;14.43;3.80;;;;;;;8.73;100.00;103229.81;5028566;28;20550;-69
2023/02/12 09:41:32;;;;;;;10.50;4.20;;;;;;;8.68;100.00;103230.47;5028010;28;20465;-69
2023/02/12 09:44:06;;;;;;;12.10;4.37;;;;;;;8.64;100.00;103245.47;5032591;28;20506;-69
2023/02/12 09:46:39;;;;;;;16.73;5.03;;;;;;;8.58;100.00;103241.78;5032625;28;20460;-69
2023/02/12 09:49:10;;;;;;;18.87;3.50;;;;;;;8.58;100.00;103247.19;5032869;28;20451;-66
2023/02/12 09:51:39;;;;;;;17.13;4.57;;;;;;;8.46;100.00;103246.28;5033210;28;20431;-68
2023/02/12 09:54:11;;;;;;;15.60;3.60;;;;;;;8.48;100.00;103248.75;5032012;28;20458;-70
2023/02/12 09:56:43;;;;;;;12.23;3.60;;;;;;;8.50;100.00;103249.31;5030974;28;20467;-69
2023/02/12 09:59:09;;;;;;;12.43;4.50;;;;;;;8.50;100.00;103254.72;5031117;28;20436;-68
2023/02/12 10:01:36;;;;;;;11.63;4.60;;;;;;;8.48;100.00;103254.13;5030689;28;20582;-69
2023/02/12 10:04:05;;;;;;;10.30;4.33;;;;;;;8.44;100.00;103256.44;5028549;28;20503;-69
2023/02/12 10:06:41;;;;;;;15.33;4.23;;;;;;;8.42;100.00;103252.34;5028474;28;20455;-68
2023/02/12 10:09:28;;;;;;;18.30;4.57;;;;;;;8.38;100.00;103249.25;5030807;28;20530;-69
2023/02/12 10:12:04;;;;;;;14.60;4.57;;;;;;;8.32;100.00;103245.53;5028747;28;20491;-71
2023/02/12 10:14:52;;;;;;;13.10;4.30;;;;;;;8.36;100.00;103256.69;5024296;28;20562;-67
2023/02/12 10:17:29;;;;;;;17.63;4.60;;;;;;;8.41;100.00;103254.22;5027568;28;20451;-69
2023/02/12 10:20:16;;;;;;;11.23;3.80;;;;;;;8.49;100.00;103247.69;5029486;28;20885;-68
2023/02/12 10:22:49;;;;;;;13.87;4.90;;;;;;;8.52;100.00;103244.53;5030147;28;20542;-68
2023/02/12 10:25:24;;;;;;;10.73;4.33;;;;;;;8.60;100.00;103246.97;5031005;28;20427;-68
2023/02/12 10:27:55;;;;;;;11.67;4.57;;;;;;;8.61;100.00;103243.22;5023844;28;20469;-68
2023/02/12 10:30:27;;;;;;;12.43;4.00;;;;;;;8.55;100.00;103242.25;5029352;28;20473;-68
2023/02/12 10:33:00;;;;;;;13.20;3.50;;;;;;;8.56;100.00;103243.06;5019235;28;20454;-69
2023/02/12 10:35:27;;;;;;;18.20;5.30;;;;;;;8.47;100.00;103247.09;5025241;28;20483;-69
2023/02/12 10:37:58;;;;;;;9.53;3.30;;;;;;;8.34;100.00;103248.81;5024092;28;20463;-69
2023/02/12 10:40:28;;;;;;;11.93;4.90;;;;;;;8.28;100.00;103248.88;5033279;28;20978;-69
2023/02/12 10:42:57;;;;;;;12.00;3.60;;;;;;;8.26;100.00;103243.69;5027774;28;20557;-68
2023/02/12 10:45:31;;;;;;;13.67;4.90;;;;;;;8.29;100.00;103248.66;5025951;28;20543;-66
2023/02/12 10:48:08;;;;;;;13.97;5.07;;;;;;;8.33;100.00;103251.75;5028527;28;20463;-67
2023/02/12 10:50:48;;;;;;;16.23;4.30;;;;;;;8.27;100.00;103248.03;5033693;28;20431;-66
2023/02/12 10:53:20;;;;;;;9.53;4.00;;;;;;;8.23;100.00;103254.91;5034788;28;20580;-67
2023/02/12 10:55:46;;;;;;;10.57;3.97;;;;;;;8.20;100.00;103251.84;5034347;28;20996;-66
2023/02/12 10:58:23;;;;;;;12.70;4.40;;;;;;;8.28;100.00;103255.09;5031100;28;20537;-64
2023/02/12 11:00:57;;;;;;;17.63;4.50;;;;;;;8.32;100.00;103255.47;5035459;28;20435;-66
2023/02/12 11:03:29;;;;;;;10.23;2.73;;;;;;;8.25;100.00;103250.13;5033432;28;20490;-66
2023/02/12 11:05:56;;;;;;;8.83;3.77;;;;;;;8.31;100.00;103246.53;5035588;28;20445;-66
2023/02/12 11:08:32;;;;;;;11.60;4.00;;;;;;;8.31;100.00;103251.13;5030806;28;20459;-67
2023/02/12 11:11:09;;;;;;;13.80;3.60;;;;;;;8.32;100.00;103250.94;5027939;28;20458;-66
2023/02/12 11:13:41;;;;;;;13.83;3.47;;;;;;;8.32;100.00;103252.78;5030520;28;21022;-67
2023/02/12 11:16:08;;;;;;;11.63;4.53;;;;;;;8.26;100.00;103248.25;5034055;28;20466;-66
2023/02/12 11:18:36;;;;;;;10.80;3.40;;;;;;;8.24;100.00;103244.97;5034552;28;20553;-66
2023/02/12 11:21:05;;;;;;;17.77;3.70;;;;;;;8.31;100.00;103253.81;5034788;28;20843;-66
2023/02/12 11:23:34;;;;;;;17.23;4.77;;;;;;;8.34;100.00;103240.72;5035161;28;20482;-66
2023/02/12 11:26:02;;;;;;;12.70;3.67;;;;;;;8.41;100.00;103245.25;5027575;28;20515;-66
2023/02/12 11:28:29;;;;;;;13.40;3.70;;;;;;;8.50;100.00;103236.69;5014795;28;20526;-66
2023/02/12 11:30:59;;;;;;;9.73;3.87;;;;;;;8.51;100.00;103237.50;5015199;28;20479;-66
2023/02/12 11:33:30;;;;;;;13.43;4.47;;;;;;;8.49;100.00;103245.81;5015024;28;20462;-66
2023/02/12 11:35:59;;;;;;;13.57;4.07;;;;;;;8.44;100.00;103248.34;5016154;28;20526;-66